createdAt,value
2023-05-19T00:00:02.221Z,100432.75
2023-05-19T00:02:39.735Z,100450.41
2023-05-19T00:05:07.693Z,100453.06
2023-05-19T00:07:38.329Z,100452.50
2023-05-19T00:10:06.706Z,100450.03
2023-05-19T00:12:34.124Z,100464.72
2023-05-19T00:15:01.463Z,100460.50
2023-05-19T00:17:34.574Z,100460.84
2023-05-19T00:20:01.919Z,100462.69
2023-05-19T00:22:31.156Z,100478.56
2023-05-19T00:24:58.336Z,100475.72
2023-05-19T00:27:25.418Z,100483.31
2023-05-19T00:29:52.554Z,100471.69
2023-05-19T00:32:19.845Z,100486.78
2023-05-19T00:34:48.609Z,100479.31
2023-05-19T00:37:17.033Z,100492.81
2023-05-19T00:39:44.325Z,100492.22
2023-05-19T00:42:11.594Z,100490.41
2023-05-19T00:44:41.050Z,100486.16
2023-05-19T00:47:08.840Z,100487.59
2023-05-19T00:49:36.428Z,100490.25
2023-05-19T00:52:06.604Z,100495.06
2023-05-19T00:54:34.954Z,100491.44
2023-05-19T00:57:04.384Z,100496.06
2023-05-19T00:59:31.586Z,100492.22
2023-05-19T01:01:58.906Z,100496.00
2023-05-19T01:04:26.723Z,100492.53
2023-05-19T01:06:57.009Z,100480.84
2023-05-19T01:09:24.646Z,100504.22
2023-05-19T01:11:51.774Z,100492.88
2023-05-19T01:14:20.689Z,100488.88
2023-05-19T01:16:55.024Z,100506.94
2023-05-19T01:19:42.452Z,100506.53
2023-05-19T01:22:32.788Z,100516.31
2023-05-19T01:25:25.816Z,100518.06
2023-05-19T01:28:30.551Z,100517.28
2023-05-19T01:31:00.695Z,100520.69
2023-05-19T01:33:31.509Z,100527.72
2023-05-19T01:35:59.904Z,100520.13
2023-05-19T01:38:29.623Z,100529.94
2023-05-19T01:40:58.194Z,100518.75
2023-05-19T01:43:26.723Z,100525.03
2023-05-19T01:45:55.444Z,100529.00
2023-05-19T01:48:23.495Z,100526.91
2023-05-19T01:50:51.706Z,100529.31
2023-05-19T01:53:18.954Z,100540.34
2023-05-19T01:55:53.705Z,100533.41
2023-05-19T01:58:37.935Z,100536.72
2023-05-19T02:01:36.050Z,100516.84
2023-05-19T02:04:15.356Z,100536.47
2023-05-19T02:06:51.098Z,100543.44
2023-05-19T02:09:42.621Z,100548.03
2023-05-19T02:12:19.861Z,100546.38
2023-05-19T02:14:55.213Z,100553.09
2023-05-19T02:17:23.764Z,100553.28
2023-05-19T02:19:51.864Z,100559.09
2023-05-19T02:22:19.104Z,100569.63
2023-05-19T02:24:51.648Z,100561.69
2023-05-19T02:27:19.097Z,100552.13
2023-05-19T02:29:46.251Z,100571.56
2023-05-19T02:32:13.909Z,100573.63
2023-05-19T02:34:42.386Z,100587.22
2023-05-19T02:37:09.470Z,100587.09
2023-05-19T02:39:36.624Z,100589.47
2023-05-19T02:42:04.197Z,100587.13
2023-05-19T02:44:31.470Z,100588.84
2023-05-19T02:46:58.636Z,100590.06
2023-05-19T02:49:25.920Z,100589.75
2023-05-19T02:51:53.394Z,100593.31
2023-05-19T02:54:20.462Z,100584.72
2023-05-19T02:56:47.548Z,100587.91
2023-05-19T02:59:14.696Z,100586.00
2023-05-19T03:01:41.839Z,100593.63
2023-05-19T03:04:09.146Z,100599.31
2023-05-19T03:06:36.491Z,100599.31
2023-05-19T03:09:03.771Z,100587.94
2023-05-19T03:11:31.110Z,100611.06
2023-05-19T03:13:58.958Z,100604.38
2023-05-19T03:16:28.208Z,100606.69
2023-05-19T03:18:56.074Z,100614.38
2023-05-19T03:21:23.382Z,100609.41
2023-05-19T03:23:50.904Z,100618.84
2023-05-19T03:26:19.192Z,100609.19
2023-05-19T03:28:46.406Z,100620.13
2023-05-19T03:31:13.553Z,100608.91
2023-05-19T03:33:41.878Z,100620.13
2023-05-19T03:36:10.150Z,100617.28
2023-05-19T03:38:39.195Z,100619.50
2023-05-19T03:41:06.425Z,100633.44
2023-05-19T03:43:34.450Z,100634.78
2023-05-19T03:46:04.769Z,100627.88
2023-05-19T03:48:50.819Z,100620.88
2023-05-19T03:51:17.914Z,100638.09
2023-05-19T03:53:47.442Z,100641.94
2023-05-19T03:56:16.897Z,100642.22
2023-05-19T03:58:45.140Z,100643.19
2023-05-19T04:01:12.333Z,100653.13
2023-05-19T04:03:39.593Z,100651.66
2023-05-19T04:06:09.041Z,100648.94
2023-05-19T04:08:36.336Z,100648.97
2023-05-19T04:11:03.528Z,100650.41
2023-05-19T04:13:33.569Z,100633.88
2023-05-19T04:16:01.427Z,100651.88
2023-05-19T04:18:29.346Z,100655.09
2023-05-19T04:20:56.810Z,100652.00
2023-05-19T04:23:23.980Z,100659.34
2023-05-19T04:25:51.480Z,100651.34
2023-05-19T04:28:18.636Z,100665.28
2023-05-19T04:30:48.595Z,100654.69
2023-05-19T04:33:16.077Z,100656.44
2023-05-19T04:35:44.213Z,100660.50
2023-05-19T04:38:12.680Z,100656.16
2023-05-19T04:40:42.382Z,100658.22
2023-05-19T04:43:09.617Z,100653.97
2023-05-19T04:45:37.834Z,100665.34
2023-05-19T04:48:06.671Z,100663.66
2023-05-19T04:50:34.458Z,100667.25
2023-05-19T04:53:01.916Z,100668.28
2023-05-19T04:55:29.189Z,100665.03
2023-05-19T04:57:56.350Z,100666.69
2023-05-19T05:00:23.669Z,100667.72
2023-05-19T05:02:58.821Z,100670.88
2023-05-19T05:05:28.910Z,100673.97
2023-05-19T05:07:56.378Z,100668.38
2023-05-19T05:10:26.063Z,100670.09
2023-05-19T05:12:54.739Z,100680.38
2023-05-19T05:15:24.466Z,100676.91
2023-05-19T05:17:52.221Z,100675.53
2023-05-19T05:20:20.392Z,100671.72
2023-05-19T05:22:48.042Z,100668.41
2023-05-19T05:25:16.510Z,100678.13
2023-05-19T05:27:44.803Z,100677.53
2023-05-19T05:30:12.531Z,100682.88
2023-05-19T05:32:40.533Z,100674.44
2023-05-19T05:35:16.203Z,100684.47
2023-05-19T05:37:43.621Z,100686.41
2023-05-19T05:40:11.474Z,100687.00
2023-05-19T05:42:39.525Z,100691.56
2023-05-19T05:45:07.502Z,100699.66
2023-05-19T05:47:38.569Z,100702.41
2023-05-19T05:50:08.913Z,100701.53
2023-05-19T05:52:37.763Z,100703.91
2023-05-19T05:55:06.180Z,100704.94
2023-05-19T05:57:37.521Z,100699.25
2023-05-19T06:00:07.981Z,100704.19
2023-05-19T06:02:47.506Z,100705.75
2023-05-19T06:05:16.115Z,100709.69
2023-05-19T06:07:44.305Z,100706.91
2023-05-19T06:10:13.245Z,100707.81
2023-05-19T06:12:40.886Z,100699.19
2023-05-19T06:15:08.824Z,100709.41
2023-05-19T06:17:54.910Z,100706.75
2023-05-19T06:20:22.485Z,100708.50
2023-05-19T06:22:49.726Z,100707.28
2023-05-19T06:25:20.820Z,100707.81
2023-05-19T06:27:48.400Z,100695.25
2023-05-19T06:30:16.824Z,100714.44
2023-05-19T06:32:53.888Z,100708.56
2023-05-19T06:35:21.301Z,100712.66
2023-05-19T06:37:48.661Z,100695.09
2023-05-19T06:40:16.262Z,100710.94
2023-05-19T06:42:44.424Z,100698.56
2023-05-19T06:45:17.139Z,100713.47
2023-05-19T06:47:45.668Z,100720.81
2023-05-19T06:50:13.382Z,100717.78
2023-05-19T06:52:42.958Z,100719.16
2023-05-19T06:55:10.244Z,100718.50
2023-05-19T06:57:39.212Z,100716.38
2023-05-19T07:00:10.515Z,100719.84
2023-05-19T07:02:39.877Z,100725.66
2023-05-19T07:05:08.320Z,100716.44
2023-05-19T07:07:36.243Z,100712.84
2023-05-19T07:10:04.910Z,100714.72
2023-05-19T07:12:33.283Z,100717.06
2023-05-19T07:15:00.788Z,100696.78
2023-05-19T07:17:32.312Z,100723.47
2023-05-19T07:19:59.508Z,100726.09
2023-05-19T07:22:27.842Z,100722.41
2023-05-19T07:24:57.206Z,100715.75
2023-05-19T07:27:24.432Z,100724.41
2023-05-19T07:29:51.602Z,100722.50
2023-05-19T07:32:18.953Z,100725.59
2023-05-19T07:34:46.181Z,100727.28
2023-05-19T07:37:13.457Z,100722.72
2023-05-19T07:39:40.684Z,100710.75
2023-05-19T07:42:07.920Z,100711.78
2023-05-19T07:44:35.131Z,100711.59
2023-05-19T07:47:02.315Z,100726.69
2023-05-19T07:49:29.692Z,100718.22
2023-05-19T07:51:57.488Z,100714.59
2023-05-19T07:54:24.673Z,100719.75
2023-05-19T07:56:51.902Z,100714.72
2023-05-19T07:59:19.529Z,100710.44
2023-05-19T08:01:46.743Z,100715.91
2023-05-19T08:04:14.238Z,100718.06
2023-05-19T08:06:42.935Z,100707.75
2023-05-19T08:09:10.494Z,100717.09
2023-05-19T08:11:37.787Z,100721.06
2023-05-19T08:14:05.038Z,100719.06
2023-05-19T08:16:32.248Z,100721.00
2023-05-19T08:19:02.792Z,100725.81
2023-05-19T08:21:30.010Z,100729.34
2023-05-19T08:23:57.690Z,100722.22
2023-05-19T08:26:24.816Z,100724.72
2023-05-19T08:28:52.061Z,100723.72
2023-05-19T08:31:19.253Z,100717.06
2023-05-19T08:33:46.466Z,100721.16
2023-05-19T08:36:13.668Z,100729.56
2023-05-19T08:38:40.820Z,100724.59
2023-05-19T08:41:08.326Z,100731.56
2023-05-19T08:43:35.657Z,100731.41
2023-05-19T08:46:04.485Z,100724.50
2023-05-19T08:48:33.491Z,100723.63
2023-05-19T08:51:33.510Z,100705.75
2023-05-19T08:54:09.264Z,100721.31
2023-05-19T08:56:37.792Z,100715.34
2023-05-19T08:59:06.715Z,100708.63
2023-05-19T09:01:34.737Z,100712.97
2023-05-19T09:04:02.772Z,100710.59
2023-05-19T09:06:32.470Z,100704.91
2023-05-19T09:08:59.767Z,100709.25
2023-05-19T09:11:27.708Z,100705.84
2023-05-19T09:13:54.872Z,100706.56
2023-05-19T09:16:22.319Z,100710.88
2023-05-19T09:18:57.119Z,100712.75
2023-05-19T09:21:32.361Z,100709.91
2023-05-19T09:24:06.330Z,100714.50
2023-05-19T09:26:38.513Z,100716.50
2023-05-19T09:29:18.345Z,100710.47
2023-05-19T09:31:54.231Z,100701.75
2023-05-19T09:34:24.909Z,100695.00
2023-05-19T09:36:53.657Z,100688.50
2023-05-19T09:39:23.156Z,100695.09
2023-05-19T09:41:54.686Z,100688.69
2023-05-19T09:44:23.835Z,100700.09
2023-05-19T09:46:51.883Z,100691.28
2023-05-19T09:49:30.362Z,100685.00
2023-05-19T09:51:59.527Z,100682.69
2023-05-19T09:54:31.293Z,100677.09
2023-05-19T09:57:03.718Z,100682.25
2023-05-19T09:59:33.373Z,100688.50
2023-05-19T10:02:02.418Z,100691.81
2023-05-19T10:04:31.187Z,100693.13
2023-05-19T10:07:05.683Z,100702.69
2023-05-19T10:09:36.449Z,100683.44
2023-05-19T10:12:03.624Z,100688.22
2023-05-19T10:14:30.767Z,100674.34
2023-05-19T10:16:59.500Z,100693.66
2023-05-19T10:19:30.314Z,100675.78
2023-05-19T10:21:57.741Z,100678.25
2023-05-19T10:24:25.007Z,100674.28
2023-05-19T10:26:58.686Z,100683.16
2023-05-19T10:29:39.442Z,100682.75
2023-05-19T10:32:16.912Z,100676.25
2023-05-19T10:34:59.439Z,100674.72
2023-05-19T10:37:38.573Z,100680.63
2023-05-19T10:40:12.607Z,100675.75
2023-05-19T10:43:01.611Z,100678.69
2023-05-19T10:45:33.433Z,100678.34
2023-05-19T10:48:00.994Z,100679.09
2023-05-19T10:50:37.147Z,100677.66
2023-05-19T10:53:04.391Z,100682.84
2023-05-19T10:55:56.220Z,100684.28
2023-05-19T10:58:43.062Z,100679.88
2023-05-19T11:01:18.817Z,100680.69
2023-05-19T11:03:54.013Z,100671.59
2023-05-19T11:06:21.583Z,100670.97
2023-05-19T11:09:13.482Z,100683.00
2023-05-19T11:11:54.632Z,100677.38
2023-05-19T11:14:24.271Z,100679.59
2023-05-19T11:16:53.535Z,100671.44
2023-05-19T11:19:31.393Z,100677.38
2023-05-19T11:22:08.157Z,100679.16
2023-05-19T11:24:40.222Z,100680.31
2023-05-19T11:27:24.928Z,100660.91
2023-05-19T11:29:52.462Z,100674.31
2023-05-19T11:32:25.934Z,100669.41
2023-05-19T11:34:53.988Z,100672.25
2023-05-19T11:37:21.370Z,100668.50
2023-05-19T11:39:49.400Z,100670.94
2023-05-19T11:42:16.775Z,100676.72
2023-05-19T11:44:48.231Z,100667.91
2023-05-19T11:47:16.531Z,100672.69
2023-05-19T11:49:52.758Z,100667.84
2023-05-19T11:52:22.320Z,100676.66
2023-05-19T11:54:50.069Z,100679.94
2023-05-19T11:57:17.474Z,100683.88
2023-05-19T11:59:45.950Z,100674.44
2023-05-19T12:02:14.077Z,100691.09
2023-05-19T12:04:41.462Z,100692.28
2023-05-19T12:07:08.825Z,100680.69
2023-05-19T12:09:37.159Z,100684.59
2023-05-19T12:12:04.923Z,100686.81
2023-05-19T12:14:32.215Z,100682.31
2023-05-19T12:16:59.598Z,100689.19
2023-05-19T12:19:27.286Z,100683.91
2023-05-19T12:21:55.199Z,100694.31
2023-05-19T12:24:22.699Z,100683.16
2023-05-19T12:26:50.552Z,100683.56
2023-05-19T12:29:17.715Z,100693.13
2023-05-19T12:31:47.457Z,100694.66
2023-05-19T12:34:14.668Z,100689.22
2023-05-19T12:36:41.853Z,100691.22
2023-05-19T12:39:09.676Z,100690.84
2023-05-19T12:41:37.681Z,100693.72
2023-05-19T12:44:15.064Z,100692.56
2023-05-19T12:46:42.660Z,100690.38
2023-05-19T12:49:10.219Z,100691.97
2023-05-19T12:51:37.489Z,100692.06
2023-05-19T12:54:07.396Z,100693.41
2023-05-19T12:56:34.598Z,100682.34
2023-05-19T12:59:02.146Z,100682.03
2023-05-19T13:01:30.561Z,100692.13
2023-05-19T13:03:57.961Z,100690.06
2023-05-19T13:06:26.504Z,100692.38
2023-05-19T13:08:53.625Z,100681.25
2023-05-19T13:11:20.765Z,100690.56
2023-05-19T13:13:47.925Z,100693.75
2023-05-19T13:16:15.188Z,100686.03
2023-05-19T13:18:42.481Z,100674.81
2023-05-19T13:21:10.342Z,100694.13
2023-05-19T13:23:37.851Z,100687.97
2023-05-19T13:26:05.812Z,100672.53
2023-05-19T13:28:33.049Z,100689.31
2023-05-19T13:31:00.418Z,100689.47
2023-05-19T13:33:27.609Z,100670.81
2023-05-19T13:35:54.804Z,100682.56
2023-05-19T13:38:21.951Z,100693.41
2023-05-19T13:40:50.432Z,100679.00
2023-05-19T13:43:17.681Z,100685.72
2023-05-19T13:45:45.065Z,100692.63
2023-05-19T13:48:12.468Z,100691.88
2023-05-19T13:50:39.920Z,100687.47
2023-05-19T13:53:07.314Z,100677.28
2023-05-19T13:55:34.778Z,100683.84
2023-05-19T13:58:02.010Z,100689.63
2023-05-19T14:00:31.008Z,100683.56
2023-05-19T14:02:59.500Z,100688.66
2023-05-19T14:05:28.482Z,100687.84
2023-05-19T14:07:55.671Z,100679.34
2023-05-19T14:10:22.996Z,100685.13
2023-05-19T14:13:25.276Z,100683.44
2023-05-19T14:15:38.305Z,100683.84
2023-05-19T14:18:06.904Z,100690.84
2023-05-19T14:20:35.120Z,100685.72
2023-05-19T14:23:03.132Z,100687.38
2023-05-19T14:25:30.309Z,100685.72
2023-05-19T14:27:57.444Z,100683.09
2023-05-19T14:30:24.771Z,100679.13
2023-05-19T14:32:51.960Z,100687.06
2023-05-19T14:35:19.629Z,100676.09
2023-05-19T14:37:46.921Z,100688.91
2023-05-19T14:40:14.257Z,100686.53
2023-05-19T14:42:41.412Z,100686.47
2023-05-19T14:45:09.855Z,100683.56
2023-05-19T14:47:37.086Z,100676.34
2023-05-19T14:50:04.617Z,100674.78
2023-05-19T14:52:32.057Z,100686.13
2023-05-19T14:54:59.192Z,100682.25
2023-05-19T14:57:26.511Z,100679.94
2023-05-19T14:59:53.629Z,100680.00
2023-05-19T15:02:20.786Z,100682.06
2023-05-19T15:04:48.180Z,100673.00
2023-05-19T15:07:15.614Z,100673.66
2023-05-19T15:09:42.828Z,100672.88
2023-05-19T15:12:09.957Z,100671.63
2023-05-19T15:14:37.107Z,100660.97
2023-05-19T15:17:04.414Z,100664.16
2023-05-19T15:19:31.771Z,100664.78
2023-05-19T15:21:59.015Z,100672.81
2023-05-19T15:24:26.478Z,100666.38
2023-05-19T15:26:55.514Z,100662.75
2023-05-19T15:29:22.693Z,100674.56
2023-05-19T15:31:51.836Z,100673.44
2023-05-19T15:34:20.420Z,100673.63
2023-05-19T15:36:47.691Z,100675.38
2023-05-19T15:39:15.006Z,100656.53
2023-05-19T15:41:42.197Z,100662.75
2023-05-19T15:44:09.401Z,100647.25
2023-05-19T15:46:36.807Z,100665.63
2023-05-19T15:49:04.356Z,100662.75
2023-05-19T15:51:31.726Z,100666.41
2023-05-19T15:53:58.895Z,100659.06
2023-05-19T15:56:26.168Z,100655.28
2023-05-19T15:58:53.413Z,100666.97
2023-05-19T16:01:21.738Z,100673.44
2023-05-19T16:03:49.087Z,100676.75
2023-05-19T16:06:16.398Z,100684.22
2023-05-19T16:08:43.569Z,100686.44
2023-05-19T16:11:10.749Z,100678.38
2023-05-19T16:13:38.010Z,100686.66
2023-05-19T16:16:05.740Z,100691.81
2023-05-19T16:18:33.022Z,100692.84
2023-05-19T16:21:00.174Z,100690.22
2023-05-19T16:23:27.732Z,100696.63
2023-05-19T16:25:55.091Z,100673.06
2023-05-19T16:28:24.981Z,100706.38
2023-05-19T16:30:52.315Z,100699.56
2023-05-19T16:33:19.720Z,100698.94
2023-05-19T16:35:47.180Z,100704.16
2023-05-19T16:38:14.486Z,100702.41
2023-05-19T16:40:41.828Z,100711.72
2023-05-19T16:43:09.157Z,100707.91
2023-05-19T16:45:36.528Z,100710.94
2023-05-19T16:48:04.175Z,100702.50
2023-05-19T16:50:50.315Z,100717.41
2023-05-19T16:53:17.633Z,100718.34
2023-05-19T16:55:44.744Z,100714.97
2023-05-19T16:58:12.067Z,100725.88
2023-05-19T17:00:39.426Z,100721.41
2023-05-19T17:03:06.966Z,100727.81
2023-05-19T17:05:35.750Z,100728.31
2023-05-19T17:08:03.011Z,100730.91
2023-05-19T17:10:30.202Z,100737.66
2023-05-19T17:12:57.368Z,100744.56
2023-05-19T17:15:24.721Z,100742.94
2023-05-19T17:17:51.921Z,100749.72
2023-05-19T17:20:19.046Z,100755.16
2023-05-19T17:22:46.297Z,100753.56
2023-05-19T17:25:13.512Z,100760.81
2023-05-19T17:27:40.786Z,100766.97
2023-05-19T17:30:09.407Z,100762.41
2023-05-19T17:32:39.437Z,100757.19
2023-05-19T17:35:07.986Z,100745.16
2023-05-19T17:37:35.246Z,100774.78
2023-05-19T17:40:02.613Z,100755.84
2023-05-19T17:42:31.898Z,100776.47
2023-05-19T17:44:59.256Z,100763.84
2023-05-19T17:47:26.567Z,100767.88
2023-05-19T17:49:56.264Z,100779.16
2023-05-19T17:52:24.320Z,100790.13
2023-05-19T17:54:51.905Z,100796.94
2023-05-19T17:57:20.363Z,100793.28
2023-05-19T17:59:47.834Z,100799.75
2023-05-19T18:02:15.937Z,100797.44
2023-05-19T18:04:44.587Z,100788.81
2023-05-19T18:07:13.832Z,100798.09
2023-05-19T18:09:46.069Z,100808.03
2023-05-19T18:12:13.512Z,100805.06
2023-05-19T18:14:40.781Z,100808.03
2023-05-19T18:17:07.984Z,100806.38
2023-05-19T18:19:35.184Z,100810.97
2023-05-19T18:22:02.381Z,100819.94
2023-05-19T18:24:29.571Z,100813.31
2023-05-19T18:26:56.964Z,100826.00
2023-05-19T18:29:24.226Z,100829.63
2023-05-19T18:31:52.008Z,100834.13
2023-05-19T18:34:20.302Z,100821.94
2023-05-19T18:36:47.512Z,100833.13
2023-05-19T18:39:14.767Z,100830.22
2023-05-19T18:41:42.920Z,100801.66
2023-05-19T18:44:11.231Z,100830.13
2023-05-19T18:46:38.474Z,100808.75
2023-05-19T18:49:05.757Z,100835.03
2023-05-19T18:51:34.655Z,100842.84
2023-05-19T18:54:03.136Z,100840.53
2023-05-19T18:56:33.441Z,100833.31
2023-05-19T18:59:00.644Z,100822.28
2023-05-19T19:01:27.948Z,100838.78
2023-05-19T19:03:55.237Z,100831.56
2023-05-19T19:06:23.471Z,100838.41
2023-05-19T19:08:51.437Z,100835.59
2023-05-19T19:11:18.737Z,100834.94
2023-05-19T19:13:46.452Z,100834.47
2023-05-19T19:16:13.714Z,100837.97
2023-05-19T19:18:41.065Z,100849.06
2023-05-19T19:21:08.500Z,100842.19
2023-05-19T19:23:35.705Z,100846.69
2023-05-19T19:26:03.054Z,100838.31
2023-05-19T19:28:30.392Z,100850.19
2023-05-19T19:30:57.621Z,100844.34
2023-05-19T19:33:24.855Z,100854.97
2023-05-19T19:35:53.437Z,100856.81
2023-05-19T19:38:20.631Z,100863.34
2023-05-19T19:40:47.944Z,100859.00
2023-05-19T19:43:15.107Z,100862.19
2023-05-19T19:45:42.362Z,100869.09
2023-05-19T19:48:09.697Z,100858.34
2023-05-19T19:50:37.149Z,100869.81
2023-05-19T19:53:04.662Z,100860.84
2023-05-19T19:55:31.898Z,100877.50
2023-05-19T19:57:59.150Z,100882.72
2023-05-19T20:00:26.435Z,100875.38
2023-05-19T20:03:03.810Z,100871.59
2023-05-19T20:05:32.746Z,100863.16
2023-05-19T20:08:00.096Z,100878.22
2023-05-19T20:10:27.536Z,100886.03
2023-05-19T20:12:54.734Z,100885.34
2023-05-19T20:15:21.880Z,100886.88
2023-05-19T20:17:49.125Z,100890.03
2023-05-19T20:20:16.499Z,100893.00
2023-05-19T20:22:46.696Z,100885.41
2023-05-19T20:25:13.837Z,100896.59
2023-05-19T20:27:41.126Z,100896.59
2023-05-19T20:30:08.775Z,100902.34
2023-05-19T20:32:36.282Z,100907.06
2023-05-19T20:35:03.561Z,100901.50
2023-05-19T20:37:32.322Z,100899.34
2023-05-19T20:39:59.532Z,100913.25
2023-05-19T20:42:26.713Z,100893.88
2023-05-19T20:44:53.981Z,100911.41
2023-05-19T20:47:21.225Z,100913.66
2023-05-19T20:49:48.522Z,100906.28
2023-05-19T20:52:16.669Z,100918.72
2023-05-19T20:54:44.054Z,100917.97
2023-05-19T20:57:12.623Z,100909.34
2023-05-19T20:59:39.805Z,100914.63
2023-05-19T21:02:07.770Z,100919.06
2023-05-19T21:04:35.215Z,100913.75
2023-05-19T21:07:02.675Z,100914.13
2023-05-19T21:09:30.052Z,100913.72
2023-05-19T21:11:57.273Z,100911.16
2023-05-19T21:14:25.467Z,100920.13
2023-05-19T21:16:54.445Z,100911.25
2023-05-19T21:19:23.276Z,100907.50
2023-05-19T21:21:50.516Z,100897.94
2023-05-19T21:24:17.757Z,100904.56
2023-05-19T21:26:44.999Z,100904.28
2023-05-19T21:29:12.366Z,100903.53
2023-05-19T21:31:39.574Z,100903.22
2023-05-19T21:34:09.581Z,100903.03
2023-05-19T21:36:36.795Z,100907.38
2023-05-19T21:39:04.698Z,100907.19
2023-05-19T21:41:32.540Z,100912.69
2023-05-19T21:44:00.069Z,100905.13
2023-05-19T21:46:29.239Z,100904.88
2023-05-19T21:48:56.893Z,100901.34
2023-05-19T21:51:24.104Z,100913.56
2023-05-19T21:53:51.250Z,100911.59
2023-05-19T21:56:18.570Z,100891.94
2023-05-19T21:58:45.753Z,100907.09
2023-05-19T22:01:13.344Z,100907.38
2023-05-19T22:03:40.966Z,100907.09
2023-05-19T22:06:08.408Z,100906.78
2023-05-19T22:08:35.869Z,100911.91
2023-05-19T22:11:03.378Z,100909.41
2023-05-19T22:13:32.048Z,100907.22
2023-05-19T22:15:59.378Z,100905.13
2023-05-19T22:18:26.730Z,100906.59
2023-05-19T22:20:53.962Z,100903.78
2023-05-19T22:23:21.213Z,100905.44
2023-05-19T22:25:48.431Z,100903.78
2023-05-19T22:28:15.614Z,100902.53
2023-05-19T22:30:42.902Z,100913.56
2023-05-19T22:33:11.843Z,100916.72
2023-05-19T22:35:39.204Z,100903.94
2023-05-19T22:38:07.489Z,100910.81
2023-05-19T22:40:36.921Z,100914.25
2023-05-19T22:43:04.070Z,100909.25
2023-05-19T22:45:31.946Z,100912.31
2023-05-19T22:47:59.173Z,100898.19
2023-05-19T22:50:26.460Z,100910.00
2023-05-19T22:52:53.818Z,100902.81
2023-05-19T22:55:21.115Z,100902.53
2023-05-19T22:57:48.262Z,100901.38
2023-05-19T23:00:18.619Z,100889.09
2023-05-19T23:02:45.952Z,100896.00
2023-05-19T23:05:13.408Z,100906.88
2023-05-19T23:07:40.751Z,100896.09
2023-05-19T23:10:08.675Z,100899.44
2023-05-19T23:12:35.965Z,100893.84
2023-05-19T23:15:03.836Z,100897.16
2023-05-19T23:17:36.478Z,100885.22
2023-05-19T23:20:04.124Z,100893.03
2023-05-19T23:22:32.728Z,100895.13
2023-05-19T23:25:01.996Z,100891.94
2023-05-19T23:27:30.930Z,100890.78
2023-05-19T23:29:58.130Z,100879.84
2023-05-19T23:32:25.316Z,100891.72
2023-05-19T23:34:52.505Z,100887.50
2023-05-19T23:37:19.737Z,100883.63
2023-05-19T23:39:47.060Z,100885.91
2023-05-19T23:42:14.361Z,100863.03
2023-05-19T23:44:41.556Z,100881.09
2023-05-19T23:47:08.756Z,100875.44
2023-05-19T23:49:35.907Z,100882.81
2023-05-19T23:52:03.101Z,100873.19
2023-05-19T23:54:31.118Z,100869.75
2023-05-19T23:56:58.574Z,100856.13
2023-05-19T23:59:25.825Z,100868.06
